Wetterdaten: Woche 04.08.14 - 10.08.14 (KW32)
Datum Zeit Temp. Aussen +5cm Feuchte Auss Luftdruck Regen Sonnenschein Regendauer UV Solar Windben
04.08.2014 00:00 16,1 C 15,0 C 98 % 1012,7 hPa 0,4 l/m 0,00 h 0,92 h 0,0 UV-I 0 W/m 9,8 km/h (2 Bft)
04.08.2014 01:00 16,3 C 15,0 C 98 % 1012,9 hPa 0,0 l/m 0,00 h 0,37 h 0,0 UV-I 0 W/m 3,0 km/h (1 Bft)
04.08.2014 02:00 16,3 C 15,0 C 98 % 1012,8 hPa 0,2 l/m 0,00 h 0,73 h 0,0 UV-I 0 W/m 0,1 km/h (0 Bft)
04.08.2014 03:00 16,4 C 15,1 C 99 % 1012,7 hPa 0,0 l/m 0,00 h 0,00 h 0,0 UV-I 0 W/m 0,0 km/h (0 Bft)
04.08.2014 04:00 16,6 C 15,5 C 99 % 1012,9 hPa 0,0 l/m 0,00 h 0,00 h 0,0 UV-I 0 W/m 5,8 km/h (2 Bft)
04.08.2014 05:00 16,7 C 15,6 C 99 % 1013,2 hPa 0,0 l/m 0,00 h 0,00 h 0,0 UV-I 0 W/m 8,5 km/h (2 Bft)
04.08.2014 06:00 16,7 C 15,6 C 99 % 1013,6 hPa 0,0 l/m 0,00 h 0,00 h 0,0 UV-I 13 W/m 0,7 km/h (0 Bft)
04.08.2014 07:00 17,0 C 16,1 C 99 % 1014,1 hPa 0,0 l/m 0,17 h 0,07 h 0,0 UV-I 72 W/m 6,4 km/h (2 Bft)
04.08.2014 08:00 17,7 C 16,8 C 99 % 1014,6 hPa 0,0 l/m 0,47 h 0,00 h 0,0 UV-I 169 W/m 6,6 km/h (2 Bft)
04.08.2014 09:00 18,4 C 17,3 C 94 % 1015,0 hPa 0,0 l/m 0,87 h 0,00 h 1,0 UV-I 355 W/m 9,4 km/h (2 Bft)
04.08.2014 10:00 20,4 C 22,0 C 83 % 1015,2 hPa 0,0 l/m 0,93 h 0,00 h 2,1 UV-I 557 W/m 16,1 km/h (3 Bft)
04.08.2014 11:00 21,3 C 21,5 C 78 % 1015,5 hPa 0,0 l/m 0,73 h 0,00 h 3,0 UV-I 611 W/m 18,1 km/h (3 Bft)
04.08.2014 12:00 22,4 C 23,3 C 72 % 1015,7 hPa 0,0 l/m 0,97 h 0,00 h 3,6 UV-I 637 W/m 16,5 km/h (3 Bft)
04.08.2014 13:00 23,0 C 22,6 C 63 % 1015,6 hPa 0,0 l/m 0,83 h 0,00 h 4,7 UV-I 685 W/m 19,0 km/h (3 Bft)
04.08.2014 14:00 23,7 C 22,7 C 59 % 1015,4 hPa 0,0 l/m 1,00 h 0,00 h 4,4 UV-I 708 W/m 19,1 km/h (3 Bft)
04.08.2014 15:00 23,8 C 23,2 C 60 % 1015,6 hPa 0,0 l/m 0,93 h 0,00 h 2,9 UV-I 519 W/m 19,5 km/h (3 Bft)
04.08.2014 16:00 23,7 C 23,4 C 60 % 1015,8 hPa 0,0 l/m 0,80 h 0,00 h 2,0 UV-I 429 W/m 15,2 km/h (3 Bft)
04.08.2014 17:00 23,1 C 22,6 C 59 % 1015,6 hPa 0,0 l/m 0,87 h 0,00 h 1,0 UV-I 357 W/m 19,6 km/h (3 Bft)
04.08.2014 18:00 23,1 C 21,6 C 60 % 1015,5 hPa 0,0 l/m 0,73 h 0,00 h 0,5 UV-I 275 W/m 19,4 km/h (3 Bft)
04.08.2014 19:00 22,3 C 20,9 C 66 % 1015,7 hPa 0,0 l/m 0,07 h 0,00 h 0,0 UV-I 85 W/m 12,4 km/h (3 Bft)
04.08.2014 20:00 21,7 C 20,2 C 69 % 1016,1 hPa 0,0 l/m 0,23 h 0,00 h 0,0 UV-I 37 W/m 3,8 km/h (1 Bft)
04.08.2014 21:00 20,5 C 17,6 C 77 % 1016,7 hPa 0,2 l/m 0,10 h 0,63 h 0,0 UV-I 15 W/m 0,0 km/h (0 Bft)
04.08.2014 22:00 19,0 C 16,3 C 88 % 1017,0 hPa 0,0 l/m 0,00 h 0,83 h 0,0 UV-I 0 W/m 0,0 km/h (0 Bft)
04.08.2014 23:00 18,2 C 16,1 C 92 % 1017,3 hPa 0,0 l/m 0,00 h 0,10 h 0,0 UV-I 0 W/m 0,7 km/h (0 Bft)
05.08.2014 00:00 18,1 C 15,9 C 92 % 1017,5 hPa 0,0 l/m 0,00 h 0,03 h 0,0 UV-I 0 W/m 0,6 km/h (0 Bft)
05.08.2014 01:00 17,7 C 15,6 C 91 % 1017,7 hPa 0,0 l/m 0,00 h 0,23 h 0,0 UV-I 0 W/m 0,0 km/h (0 Bft)
05.08.2014 02:00 17,5 C 15,5 C 91 % 1017,9 hPa 0,0 l/m 0,00 h 0,00 h 0,0 UV-I 0 W/m 0,0 km/h (0 Bft)
05.08.2014 03:00 17,4 C 15,6 C 92 % 1018,1 hPa 0,0 l/m 0,00 h 0,00 h 0,0 UV-I 0 W/m 0,0 km/h (0 Bft)
05.08.2014 04:00 17,0 C 15,4 C 94 % 1018,2 hPa 0,0 l/m 0,00 h 0,00 h 0,0 UV-I 0 W/m 0,9 km/h (0 Bft)
05.08.2014 05:00 15,9 C 14,1 C 94 % 1018,5 hPa 0,0 l/m 0,00 h 0,00 h 0,0 UV-I 0 W/m 0,1 km/h (0 Bft)
05.08.2014 06:00 15,0 C 13,3 C 96 % 1018,7 hPa 0,0 l/m 0,00 h 0,00 h 0,0 UV-I 20 W/m 0,1 km/h (0 Bft)
05.08.2014 07:00 15,2 C 13,8 C 96 % 1019,0 hPa 0,0 l/m 0,73 h 0,00 h 0,0 UV-I 128 W/m 0,2 km/h (0 Bft)
05.08.2014 08:00 16,9 C 15,7 C 91 % 1019,1 hPa 0,0 l/m 1,00 h 0,00 h 0,4 UV-I 307 W/m 1,8 km/h (1 Bft)
05.08.2014 09:00 19,0 C 18,2 C 83 % 1019,3 hPa 0,0 l/m 1,00 h 0,00 h 1,1 UV-I 454 W/m 5,3 km/h (1 Bft)
05.08.2014 10:00 21,0 C 24,4 C 74 % 1019,5 hPa 0,0 l/m 1,00 h 0,00 h 2,1 UV-I 599 W/m 10,3 km/h (2 Bft)
05.08.2014 11:00 21,9 C 23,2 C 67 % 1019,6 hPa 0,0 l/m 0,93 h 0,00 h 3,1 UV-I 670 W/m 14,4 km/h (3 Bft)
05.08.2014 12:00 22,7 C 24,3 C 62 % 1019,6 hPa 0,0 l/m 0,73 h 0,00 h 2,8 UV-I 605 W/m 16,3 km/h (3 Bft)
05.08.2014 13:00 22,6 C 22,5 C 61 % 1019,4 hPa 0,0 l/m 0,57 h 0,00 h 3,2 UV-I 509 W/m 11,8 km/h (2 Bft)
05.08.2014 14:00 23,2 C 22,6 C 58 % 1019,2 hPa 0,0 l/m 0,67 h 0,00 h 3,4 UV-I 562 W/m 13,0 km/h (3 Bft)
05.08.2014 15:00 23,8 C 23,2 C 54 % 1019,0 hPa 0,0 l/m 0,90 h 0,00 h 3,1 UV-I 627 W/m 21,0 km/h (4 Bft)
05.08.2014 16:00 24,0 C 23,0 C 52 % 1019,0 hPa 0,0 l/m 0,73 h 0,00 h 2,0 UV-I 472 W/m 17,8 km/h (3 Bft)
05.08.2014 17:00 24,0 C 22,7 C 53 % 1018,8 hPa 0,0 l/m 1,00 h 0,00 h 1,0 UV-I 432 W/m 18,4 km/h (3 Bft)
05.08.2014 18:00 23,4 C 21,8 C 52 % 1018,6 hPa 0,0 l/m 0,90 h 0,00 h 0,4 UV-I 278 W/m 18,2 km/h (3 Bft)
05.08.2014 19:00 22,6 C 20,3 C 55 % 1018,5 hPa 0,0 l/m 0,67 h 0,00 h 0,0 UV-I 124 W/m 8,4 km/h (2 Bft)
05.08.2014 20:00 21,3 C 18,8 C 66 % 1018,6 hPa 0,0 l/m 0,20 h 0,00 h 0,0 UV-I 42 W/m 2,2 km/h (1 Bft)
05.08.2014 21:00 19,0 C 16,4 C 77 % 1018,8 hPa 0,0 l/m 0,03 h 0,00 h 0,0 UV-I 11 W/m 0,0 km/h (0 Bft)
05.08.2014 22:00 17,2 C 15,2 C 84 % 1019,1 hPa 0,0 l/m 0,00 h 0,00 h 0,0 UV-I 0 W/m 0,0 km/h (0 Bft)
05.08.2014 23:00 16,5 C 14,7 C 90 % 1018,9 hPa 0,0 l/m 0,00 h 0,00 h 0,0 UV-I 0 W/m 0,0 km/h (0 Bft)
06.08.2014 00:00 15,6 C 13,8 C 91 % 1018,6 hPa 0,0 l/m 0,00 h 0,00 h 0,0 UV-I 0 W/m 0,0 km/h (0 Bft)
06.08.2014 01:00 14,8 C 13,1 C 94 % 1018,3 hPa 0,0 l/m 0,00 h 0,00 h 0,0 UV-I 0 W/m 0,1 km/h (0 Bft)
06.08.2014 02:00 14,4 C 12,8 C 94 % 1017,9 hPa 0,0 l/m 0,00 h 0,00 h 0,0 UV-I 0 W/m 0,3 km/h (0 Bft)
06.08.2014 03:00 14,2 C 12,8 C 93 % 1018,0 hPa 0,0 l/m 0,00 h 0,00 h 0,0 UV-I 0 W/m 0,3 km/h (0 Bft)
06.08.2014 04:00 13,8 C 12,5 C 94 % 1017,6 hPa 0,0 l/m 0,00 h 0,00 h 0,0 UV-I 0 W/m 2,0 km/h (1 Bft)
06.08.2014 05:00 13,5 C 12,2 C 95 % 1017,3 hPa 0,0 l/m 0,00 h 0,00 h 0,0 UV-I 0 W/m 5,1 km/h (1 Bft)
06.08.2014 06:00 13,4 C 12,2 C 95 % 1017,3 hPa 0,0 l/m 0,27 h 0,00 h 0,0 UV-I 27 W/m 7,6 km/h (2 Bft)
06.08.2014 07:00 14,1 C 13,3 C 96 % 1016,9 hPa 0,0 l/m 0,93 h 0,00 h 0,0 UV-I 160 W/m 15,6 km/h (3 Bft)
06.08.2014 08:00 16,4 C 15,8 C 91 % 1016,6 hPa 0,0 l/m 0,93 h 0,00 h 0,0 UV-I 247 W/m 20,1 km/h (4 Bft)
06.08.2014 09:00 18,7 C 17,9 C 85 % 1016,3 hPa 0,0 l/m 1,00 h 0,00 h 1,1 UV-I 450 W/m 25,9 km/h (4 Bft)
06.08.2014 10:00 21,5 C 23,5 C 75 % 1015,8 hPa 0,0 l/m 1,00 h 0,00 h 2,1 UV-I 502 W/m 23,9 km/h (4 Bft)
06.08.2014 11:00 23,4 C 23,9 C 66 % 1015,4 hPa 0,0 l/m 1,00 h 0,00 h 3,4 UV-I 610 W/m 27,5 km/h (4 Bft)
06.08.2014 12:00 25,2 C 26,4 C 57 % 1014,8 hPa 0,0 l/m 0,95 h 0,00 h 4,2 UV-I 712 W/m 26,9 km/h (4 Bft)
06.08.2014 13:00 25,3 C 25,2 C 55 % 1014,5 hPa 0,0 l/m 0,67 h 0,00 h 3,1 UV-I 461 W/m 27,1 km/h (4 Bft)
06.08.2014 14:00 24,4 C 23,7 C 59 % 1014,2 hPa 0,0 l/m 0,00 h 0,00 h 1,5 UV-I 249 W/m 18,0 km/h (3 Bft)
06.08.2014 15:00 24,0 C 22,2 C 63 % 1013,6 hPa 0,0 l/m 0,00 h 0,30 h 0,9 UV-I 146 W/m 6,5 km/h (2 Bft)
06.08.2014 16:00 21,8 C 18,8 C 73 % 1013,8 hPa 0,2 l/m 0,00 h 0,93 h 0,0 UV-I 106 W/m 20,9 km/h (4 Bft)
06.08.2014 17:00 18,5 C 17,1 C 93 % 1014,4 hPa 0,8 l/m 0,00 h 1,00 h 0,0 UV-I 75 W/m 21,0 km/h (4 Bft)
06.08.2014 18:00 17,9 C 16,5 C 96 % 1014,5 hPa 1,2 l/m 0,00 h 0,98 h 0,0 UV-I 27 W/m 5,9 km/h (2 Bft)
06.08.2014 19:00 17,7 C 16,6 C 96 % 1014,2 hPa 0,2 l/m 0,00 h 1,00 h 0,0 UV-I 38 W/m 0,3 km/h (0 Bft)
06.08.2014 20:00 17,6 C 16,2 C 97 % 1014,1 hPa 0,4 l/m 0,00 h 0,97 h 0,0 UV-I 13 W/m 1,5 km/h (1 Bft)
06.08.2014 21:00 17,3 C 16,1 C 97 % 1014,1 hPa 0,4 l/m 0,00 h 0,83 h 0,0 UV-I 0 W/m 1,7 km/h (1 Bft)
06.08.2014 22:00 17,0 C 15,8 C 98 % 1014,0 hPa 0,0 l/m 0,00 h 1,00 h 0,0 UV-I 0 W/m 11,7 km/h (2 Bft)
06.08.2014 23:00 16,7 C 15,6 C 98 % 1013,7 hPa 0,2 l/m 0,00 h 0,83 h 0,0 UV-I 0 W/m 9,9 km/h (2 Bft)
07.08.2014 00:00 16,5 C 15,3 C 98 % 1013,5 hPa 0,0 l/m 0,00 h 0,47 h 0,0 UV-I 0 W/m 14,3 km/h (3 Bft)
07.08.2014 01:00 16,0 C 15,0 C 98 % 1013,3 hPa 0,0 l/m 0,00 h 0,00 h 0,0 UV-I 0 W/m 11,8 km/h (2 Bft)
07.08.2014 02:00 16,0 C 15,0 C 99 % 1013,1 hPa 0,0 l/m 0,00 h 0,00 h 0,0 UV-I 0 W/m 4,0 km/h (1 Bft)
07.08.2014 03:00 16,1 C 15,0 C 99 % 1012,9 hPa 0,0 l/m 0,00 h 0,00 h 0,0 UV-I 0 W/m 0,2 km/h (0 Bft)
07.08.2014 04:00 16,3 C 15,0 C 99 % 1012,9 hPa 0,0 l/m 0,00 h 0,00 h 0,0 UV-I 0 W/m 0,6 km/h (0 Bft)
07.08.2014 05:00 16,6 C 15,5 C 99 % 1012,9 hPa 0,0 l/m 0,00 h 0,00 h 0,0 UV-I 0 W/m 1,9 km/h (1 Bft)
07.08.2014 06:00 16,8 C 15,6 C 99 % 1013,1 hPa 0,0 l/m 0,00 h 0,00 h 0,0 UV-I 11 W/m 2,1 km/h (1 Bft)
07.08.2014 07:00 16,8 C 15,7 C 99 % 1013,3 hPa 0,0 l/m 0,00 h 0,00 h 0,0 UV-I 37 W/m 13,7 km/h (3 Bft)
07.08.2014 08:00 16,9 C 15,9 C 97 % 1013,6 hPa 0,0 l/m 0,30 h 0,00 h 0,0 UV-I 145 W/m 11,1 km/h (2 Bft)
07.08.2014 09:00 18,1 C 17,3 C 93 % 1013,9 hPa 0,0 l/m 0,33 h 0,00 h 1,0 UV-I 274 W/m 19,5 km/h (3 Bft)
07.08.2014 10:00 19,7 C 20,4 C 87 % 1014,2 hPa 0,0 l/m 0,77 h 0,00 h 1,9 UV-I 467 W/m 21,1 km/h (4 Bft)
07.08.2014 11:00 21,4 C 21,6 C 81 % 1014,3 hPa 0,0 l/m 0,97 h 0,00 h 2,9 UV-I 594 W/m 18,1 km/h (3 Bft)
07.08.2014 12:00 22,4 C 22,8 C 78 % 1014,3 hPa 0,0 l/m 0,70 h 0,00 h 3,0 UV-I 534 W/m 16,9 km/h (3 Bft)
07.08.2014 13:00 23,5 C 23,5 C 75 % 1014,2 hPa 0,0 l/m 0,57 h 0,00 h 3,1 UV-I 530 W/m 13,5 km/h (3 Bft)
07.08.2014 14:00 23,7 C 23,1 C 74 % 1014,1 hPa 0,2 l/m 0,57 h 0,00 h 2,7 UV-I 496 W/m 8,7 km/h (2 Bft)
07.08.2014 15:00 23,7 C 22,4 C 74 % 1014,1 hPa 0,0 l/m 0,57 h 0,20 h 2,0 UV-I 446 W/m 17,6 km/h (3 Bft)
07.08.2014 16:00 24,3 C 23,3 C 72 % 1014,1 hPa 0,0 l/m 0,70 h 0,00 h 1,8 UV-I 451 W/m 18,0 km/h (3 Bft)
07.08.2014 17:00 24,8 C 23,3 C 68 % 1014,1 hPa 0,0 l/m 0,97 h 0,00 h 1,0 UV-I 436 W/m 17,6 km/h (3 Bft)
07.08.2014 18:00 23,8 C 22,3 C 68 % 1014,1 hPa 0,0 l/m 0,60 h 0,00 h 0,5 UV-I 193 W/m 13,5 km/h (3 Bft)
07.08.2014 19:00 23,4 C 21,8 C 70 % 1014,1 hPa 0,0 l/m 0,60 h 0,00 h 0,0 UV-I 127 W/m 11,8 km/h (2 Bft)
07.08.2014 20:00 22,2 C 20,4 C 75 % 1014,5 hPa 0,0 l/m 0,00 h 0,00 h 0,0 UV-I 27 W/m 6,5 km/h (2 Bft)
07.08.2014 21:00 20,4 C 18,5 C 83 % 1014,8 hPa 0,0 l/m 0,00 h 0,00 h 0,0 UV-I 7 W/m 0,0 km/h (0 Bft)
07.08.2014 22:00 19,0 C 16,8 C 88 % 1015,0 hPa 0,0 l/m 0,00 h 0,00 h 0,0 UV-I 0 W/m 0,0 km/h (0 Bft)
07.08.2014 23:00 18,6 C 16,6 C 91 % 1015,1 hPa 0,0 l/m 0,00 h 0,00 h 0,0 UV-I 0 W/m 0,0 km/h (0 Bft)
08.08.2014 00:00 18,1 C 16,2 C 93 % 1015,2 hPa 0,0 l/m 0,00 h 0,00 h 0,0 UV-I 0 W/m 0,0 km/h (0 Bft)
08.08.2014 01:00 18,0 C 16,4 C 93 % 1015,0 hPa 0,0 l/m 0,00 h 0,00 h 0,0 UV-I 0 W/m 0,0 km/h (0 Bft)
08.08.2014 02:00 18,0 C 16,3 C 93 % 1014,8 hPa 0,0 l/m 0,00 h 0,00 h 0,0 UV-I 0 W/m 3,3 km/h (1 Bft)
08.08.2014 03:00 17,5 C 15,7 C 93 % 1014,7 hPa 0,0 l/m 0,00 h 0,00 h 0,0 UV-I 0 W/m 0,1 km/h (0 Bft)
08.08.2014 04:00 16,9 C 15,3 C 95 % 1014,3 hPa 0,0 l/m 0,00 h 0,00 h 0,0 UV-I 0 W/m 0,0 km/h (0 Bft)
08.08.2014 05:00 16,8 C 15,2 C 96 % 1014,1 hPa 0,0 l/m 0,00 h 0,00 h 0,0 UV-I 0 W/m 0,7 km/h (0 Bft)
08.08.2014 06:00 16,5 C 15,1 C 97 % 1013,8 hPa 0,0 l/m 0,00 h 0,00 h 0,0 UV-I 16 W/m 6,3 km/h (2 Bft)
08.08.2014 07:00 17,4 C 16,7 C 95 % 1013,5 hPa 0,0 l/m 0,50 h 0,00 h 0,0 UV-I 112 W/m 14,3 km/h (3 Bft)
08.08.2014 08:00 18,6 C 18,0 C 92 % 1013,4 hPa 0,0 l/m 0,43 h 0,00 h 0,0 UV-I 175 W/m 13,2 km/h (3 Bft)
08.08.2014 09:00 20,3 C 19,6 C 86 % 1013,0 hPa 0,0 l/m 0,93 h 0,00 h 0,8 UV-I 328 W/m 24,2 km/h (4 Bft)
08.08.2014 10:00 21,4 C 20,7 C 82 % 1012,6 hPa 0,0 l/m 0,00 h 0,10 h 0,9 UV-I 227 W/m 21,8 km/h (4 Bft)
08.08.2014 11:00 22,2 C 22,0 C 79 % 1012,3 hPa 0,0 l/m 0,33 h 0,00 h 1,7 UV-I 310 W/m 21,5 km/h (4 Bft)
08.08.2014 12:00 25,3 C 26,0 C 70 % 1011,5 hPa 0,0 l/m 0,98 h 0,00 h 3,8 UV-I 604 W/m 28,4 km/h (4 Bft)
08.08.2014 13:00 25,6 C 25,1 C 67 % 1010,9 hPa 0,0 l/m 0,30 h 0,00 h 2,0 UV-I 306 W/m 30,1 km/h (5 Bft)
08.08.2014 14:00 24,5 C 23,0 C 70 % 1010,2 hPa 0,0 l/m 0,00 h 0,03 h 0,7 UV-I 128 W/m 21,4 km/h (4 Bft)
08.08.2014 15:00 24,1 C 21,6 C 71 % 1009,4 hPa 1,2 l/m 0,00 h 0,43 h 0,5 UV-I 79 W/m 21,5 km/h (4 Bft)
08.08.2014 16:00 19,7 C 18,0 C 94 % 1009,9 hPa 11,2 l/m 0,00 h 0,73 h 0,0 UV-I 60 W/m 14,9 km/h (3 Bft)
08.08.2014 17:00 19,8 C 18,8 C 97 % 1009,5 hPa 0,0 l/m 0,00 h 0,60 h 0,0 UV-I 111 W/m 1,5 km/h (1 Bft)
08.08.2014 18:00 20,1 C 18,9 C 98 % 1008,8 hPa 0,6 l/m 0,00 h 0,72 h 0,0 UV-I 61 W/m 4,1 km/h (1 Bft)
08.08.2014 19:00 19,8 C 18,2 C 97 % 1007,7 hPa 0,2 l/m 0,00 h 0,50 h 0,0 UV-I 33 W/m 15,3 km/h (3 Bft)
08.08.2014 20:00 19,5 C 17,8 C 98 % 1006,8 hPa 1,2 l/m 0,00 h 0,83 h 0,0 UV-I 8 W/m 21,8 km/h (4 Bft)
08.08.2014 21:00 19,3 C 17,8 C 98 % 1006,1 hPa 1,8 l/m 0,00 h 0,93 h 0,0 UV-I 0 W/m 25,6 km/h (4 Bft)
08.08.2014 22:00 19,2 C 17,8 C 98 % 1005,6 hPa 0,2 l/m 0,00 h 0,67 h 0,0 UV-I 0 W/m 15,4 km/h (3 Bft)
08.08.2014 23:00 19,2 C 17,8 C 98 % 1005,0 hPa 2,0 l/m 0,00 h 0,33 h 0,0 UV-I 0 W/m 21,4 km/h (4 Bft)
09.08.2014 00:00 19,2 C 17,8 C 99 % 1003,9 hPa 1,6 l/m 0,00 h 0,50 h 0,0 UV-I 0 W/m 16,2 km/h (3 Bft)
09.08.2014 01:00 19,1 C 17,8 C 99 % 1003,2 hPa 0,8 l/m 0,00 h 0,80 h 0,0 UV-I 0 W/m 20,9 km/h (4 Bft)
09.08.2014 02:00 19,0 C 17,5 C 99 % 1002,9 hPa 0,0 l/m 0,00 h 0,87 h 0,0 UV-I 0 W/m 31,8 km/h (5 Bft)
09.08.2014 03:00 19,0 C 17,3 C 99 % 1002,2 hPa 0,6 l/m 0,00 h 0,97 h 0,0 UV-I 0 W/m 30,7 km/h (5 Bft)
09.08.2014 04:00 18,6 C 17,1 C 98 % 1002,8 hPa 0,2 l/m 0,00 h 0,42 h 0,0 UV-I 0 W/m 36,1 km/h (5 Bft)
09.08.2014 05:00 18,4 C 16,8 C 97 % 1002,8 hPa 0,0 l/m 0,00 h 0,00 h 0,0 UV-I 0 W/m 38,5 km/h (5 Bft)
09.08.2014 06:00 18,5 C 16,7 C 94 % 1002,9 hPa 0,0 l/m 0,00 h 0,00 h 0,0 UV-I 19 W/m 39,7 km/h (6 Bft)
09.08.2014 07:00 18,9 C 17,2 C 93 % 1003,4 hPa 0,0 l/m 0,17 h 0,17 h 0,0 UV-I 59 W/m 43,4 km/h (6 Bft)
09.08.2014 08:00 18,5 C 17,0 C 91 % 1005,2 hPa 0,0 l/m 0,00 h 0,00 h 0,0 UV-I 72 W/m 56,1 km/h (7 Bft)
09.08.2014 09:00 18,2 C 17,1 C 86 % 1007,4 hPa 0,0 l/m 0,67 h 0,00 h 0,9 UV-I 384 W/m 50,1 km/h (7 Bft)
09.08.2014 10:00 19,2 C 20,5 C 82 % 1009,1 hPa 0,0 l/m 0,60 h 0,00 h 1,6 UV-I 434 W/m 48,4 km/h (6 Bft)
09.08.2014 11:00 19,7 C 19,6 C 80 % 1010,4 hPa 0,0 l/m 0,47 h 0,00 h 2,1 UV-I 414 W/m 43,6 km/h (6 Bft)
09.08.2014 12:00 20,7 C 20,6 C 75 % 1011,1 hPa 0,0 l/m 0,63 h 0,00 h 2,9 UV-I 527 W/m 42,9 km/h (6 Bft)
09.08.2014 13:00 21,9 C 21,4 C 72 % 1011,4 hPa 0,0 l/m 0,77 h 0,00 h 3,6 UV-I 634 W/m 44,3 km/h (6 Bft)
09.08.2014 14:00 22,7 C 21,8 C 67 % 1011,8 hPa 0,0 l/m 0,83 h 0,00 h 3,4 UV-I 682 W/m 46,5 km/h (6 Bft)
09.08.2014 15:00 23,7 C 22,9 C 63 % 1012,0 hPa 0,0 l/m 0,73 h 0,00 h 3,2 UV-I 590 W/m 39,3 km/h (6 Bft)
09.08.2014 16:00 23,3 C 22,5 C 64 % 1012,1 hPa 0,0 l/m 0,73 h 0,00 h 1,9 UV-I 468 W/m 32,7 km/h (5 Bft)
09.08.2014 17:00 23,0 C 21,6 C 64 % 1012,1 hPa 0,0 l/m 0,80 h 0,00 h 0,9 UV-I 333 W/m 32,5 km/h (5 Bft)
09.08.2014 18:00 22,9 C 21,2 C 65 % 1012,1 hPa 0,0 l/m 0,98 h 0,00 h 0,5 UV-I 286 W/m 29,4 km/h (5 Bft)
09.08.2014 19:00 22,1 C 20,4 C 67 % 1012,0 hPa 0,0 l/m 0,60 h 0,00 h 0,0 UV-I 120 W/m 20,9 km/h (4 Bft)
09.08.2014 20:00 21,0 C 18,5 C 71 % 1011,9 hPa 0,0 l/m 0,07 h 0,00 h 0,0 UV-I 34 W/m 3,1 km/h (1 Bft)
09.08.2014 21:00 19,3 C 16,6 C 80 % 1012,0 hPa 0,0 l/m 0,00 h 0,00 h 0,0 UV-I 0 W/m 1,4 km/h (1 Bft)
09.08.2014 22:00 18,2 C 15,8 C 83 % 1012,0 hPa 0,0 l/m 0,00 h 0,00 h 0,0 UV-I 0 W/m 0,5 km/h (0 Bft)
09.08.2014 23:00 17,7 C 15,6 C 87 % 1012,0 hPa 0,0 l/m 0,00 h 0,00 h 0,0 UV-I 0 W/m 0,2 km/h (0 Bft)
10.08.2014 00:00 17,4 C 15,6 C 89 % 1011,6 hPa 0,0 l/m 0,00 h 0,00 h 0,0 UV-I 0 W/m 0,8 km/h (0 Bft)
10.08.2014 01:00 17,0 C 15,5 C 90 % 1011,0 hPa 0,0 l/m 0,00 h 0,00 h 0,0 UV-I 0 W/m 1,7 km/h (1 Bft)
10.08.2014 02:00 16,3 C 14,8 C 93 % 1010,7 hPa 0,0 l/m 0,00 h 0,00 h 0,0 UV-I 0 W/m 7,0 km/h (2 Bft)
10.08.2014 03:00 16,8 C 15,5 C 90 % 1009,9 hPa 0,0 l/m 0,00 h 0,00 h 0,0 UV-I 0 W/m 16,2 km/h (3 Bft)
10.08.2014 04:00 16,8 C 15,3 C 90 % 1009,3 hPa 0,0 l/m 0,00 h 0,00 h 0,0 UV-I 0 W/m 2,8 km/h (1 Bft)
10.08.2014 05:00 16,7 C 15,5 C 90 % 1008,7 hPa 0,0 l/m 0,00 h 0,00 h 0,0 UV-I 0 W/m 10,7 km/h (2 Bft)
10.08.2014 06:00 16,4 C 15,1 C 90 % 1008,3 hPa 0,0 l/m 0,07 h 0,00 h 0,0 UV-I 25 W/m 15,6 km/h (3 Bft)
10.08.2014 07:00 16,6 C 15,4 C 90 % 1007,9 hPa 0,0 l/m 0,60 h 0,00 h 0,0 UV-I 104 W/m 19,8 km/h (4 Bft)
10.08.2014 08:00 17,8 C 16,5 C 86 % 1007,2 hPa 0,0 l/m 0,87 h 0,00 h 0,0 UV-I 239 W/m 29,1 km/h (5 Bft)
10.08.2014 09:00 20,0 C 18,7 C 81 % 1006,4 hPa 0,0 l/m 1,00 h 0,00 h 1,0 UV-I 409 W/m 42,2 km/h (6 Bft)
10.08.2014 10:00 22,0 C 22,9 C 77 % 1006,1 hPa 0,0 l/m 0,73 h 0,00 h 1,7 UV-I 456 W/m 40,5 km/h (6 Bft)
10.08.2014 11:00 22,5 C 21,1 C 77 % 1005,5 hPa 0,0 l/m 0,50 h 0,00 h 1,8 UV-I 348 W/m 41,7 km/h (6 Bft)
10.08.2014 12:00 22,1 C 20,8 C 80 % 1004,9 hPa 0,0 l/m 0,00 h 0,00 h 1,2 UV-I 223 W/m 38,5 km/h (5 Bft)
10.08.2014 13:00 23,0 C 22,8 C 79 % 1004,1 hPa 0,0 l/m 0,57 h 0,13 h 3,1 UV-I 419 W/m 45,0 km/h (6 Bft)
10.08.2014 14:00 22,6 C 21,9 C 82 % 1003,5 hPa 0,0 l/m 0,03 h 0,00 h 1,3 UV-I 196 W/m 48,9 km/h (6 Bft)
10.08.2014 15:00 21,5 C 19,6 C 89 % 1003,3 hPa 0,6 l/m 0,00 h 0,70 h 0,9 UV-I 86 W/m 34,2 km/h (5 Bft)
10.08.2014 16:00 21,3 C 19,6 C 93 % 1002,8 hPa 0,6 l/m 0,23 h 0,53 h 1,0 UV-I 235 W/m 28,1 km/h (4 Bft)
10.08.2014 17:00 23,1 C 20,8 C 86 % 1001,7 hPa 0,0 l/m 0,63 h 0,00 h 0,9 UV-I 322 W/m 54,0 km/h (7 Bft)
10.08.2014 18:00 22,6 C 20,0 C 86 % 1000,8 hPa 0,0 l/m 0,12 h 0,03 h 0,0 UV-I 127 W/m 51,6 km/h (7 Bft)
10.08.2014 19:00 21,4 C 18,9 C 92 % 1000,7 hPa 3,0 l/m 0,00 h 0,90 h 0,0 UV-I 11 W/m 44,4 km/h (6 Bft)
10.08.2014 20:00 20,1 C 18,3 C 94 % 1001,4 hPa 0,0 l/m 0,27 h 0,17 h 0,0 UV-I 28 W/m 31,4 km/h (5 Bft)
10.08.2014 21:00 18,7 C 16,6 C 89 % 1003,1 hPa 0,0 l/m 0,00 h 0,00 h 0,0 UV-I 0 W/m 55,7 km/h (7 Bft)
10.08.2014 22:00 17,6 C 15,6 C 85 % 1004,4 hPa 0,0 l/m 0,00 h 0,00 h 0,0 UV-I 0 W/m 46,5 km/h (6 Bft)
10.08.2014 23:00 17,2 C 15,3 C 81 % 1005,5 hPa 0,0 l/m 0,00 h 0,00 h 0,0 UV-I 0 W/m 59,6 km/h (7 Bft)
Min-Datum _ 06.08.14 06.08.14 05.08.14 10.08.14 - - - - - 04.08.14
_ Min-Zeit 06:36 04:28 16:50 19:08 - - - - - 00:26
Minimum _ 13,3 C 12,2 C 46 % 1000,2 hPa - - - - - 0,0 km/h (0 Bft)
Max-Datum _ 08.08.14 06.08.14 04.08.14 05.08.14 08.08.14 04.08.14 04.08.14 06.08.14 06.08.14 09.08.14
_ Max-Zeit 13:00 12:18 07:44 10:56 16:04 07:50 00:00 13:02 13:00 07:56
Maximum _ 26,6 C 27,8 C 100 % 1019,7 hPa 11,2 l/m 0,03 h 0,03 h 5,3 UV-I 947 W/m 88,4 km/h
SW (10 Bft)
Durchschnitt _ 19,6 C 18,4 C 84 % 1012,6 hPa #30,2 l/m #52:18 h #24:32 h 2,0 UV-I 285 W/m 16,4 km/h (3 Bft)
© 2014 W. Hausmann